sensor_id;sensor_type;location;lat;lon;timestamp;P1;durP1;ratioP1;P2;durP2;ratioP2
20067;SDS011;10194;50.824;7.134;2024-02-28T00:00:04;63.67;;;57.37;;
20067;SDS011;10194;50.824;7.134;2024-02-28T00:02:31;64.53;;;58.13;;
20067;SDS011;10194;50.824;7.134;2024-02-28T00:04:56;62.80;;;56.50;;
20067;SDS011;10194;50.824;7.134;2024-02-28T00:07:25;61.33;;;55.03;;
20067;SDS011;10194;50.824;7.134;2024-02-28T00:09:50;60.80;;;54.60;;
20067;SDS011;10194;50.824;7.134;2024-02-28T00:12:16;61.17;;;54.87;;
20067;SDS011;10194;50.824;7.134;2024-02-28T00:14:42;60.87;;;54.67;;
20067;SDS011;10194;50.824;7.134;2024-02-28T00:17:08;61.03;;;54.73;;
20067;SDS011;10194;50.824;7.134;2024-02-28T00:19:34;60.43;;;54.23;;
20067;SDS011;10194;50.824;7.134;2024-02-28T00:22:00;59.57;;;53.47;;
20067;SDS011;10194;50.824;7.134;2024-02-28T00:24:26;59.87;;;53.70;;
20067;SDS011;10194;50.824;7.134;2024-02-28T00:26:52;59.07;;;52.97;;
20067;SDS011;10194;50.824;7.134;2024-02-28T00:29:17;59.70;;;53.50;;
20067;SDS011;10194;50.824;7.134;2024-02-28T00:31:43;61.17;;;54.90;;
20067;SDS011;10194;50.824;7.134;2024-02-28T00:34:09;66.70;;;59.63;;
20067;SDS011;10194;50.824;7.134;2024-02-28T00:36:35;61.47;;;55.23;;
20067;SDS011;10194;50.824;7.134;2024-02-28T00:39:01;61.77;;;55.47;;
20067;SDS011;10194;50.824;7.134;2024-02-28T00:41:26;62.70;;;56.23;;
20067;SDS011;10194;50.824;7.134;2024-02-28T00:43:52;59.87;;;53.77;;
20067;SDS011;10194;50.824;7.134;2024-02-28T00:46:18;60.07;;;53.77;;
20067;SDS011;10194;50.824;7.134;2024-02-28T00:48:44;58.73;;;52.63;;
20067;SDS011;10194;50.824;7.134;2024-02-28T00:51:09;60.23;;;53.90;;
20067;SDS011;10194;50.824;7.134;2024-02-28T00:53:35;58.87;;;52.77;;
20067;SDS011;10194;50.824;7.134;2024-02-28T00:56:01;59.20;;;53.07;;
20067;SDS011;10194;50.824;7.134;2024-02-28T00:58:28;60.33;;;54.07;;
20067;SDS011;10194;50.824;7.134;2024-02-28T01:00:55;57.83;;;51.90;;
20067;SDS011;10194;50.824;7.134;2024-02-28T01:03:21;58.97;;;52.83;;
20067;SDS011;10194;50.824;7.134;2024-02-28T01:05:48;57.80;;;51.90;;
20067;SDS011;10194;50.824;7.134;2024-02-28T01:08:15;59.40;;;53.23;;
20067;SDS011;10194;50.824;7.134;2024-02-28T01:10:42;59.13;;;52.97;;
20067;SDS011;10194;50.824;7.134;2024-02-28T01:13:08;60.10;;;53.90;;
20067;SDS011;10194;50.824;7.134;2024-02-28T01:15:34;60.90;;;54.50;;
20067;SDS011;10194;50.824;7.134;2024-02-28T01:18:00;59.37;;;53.17;;
20067;SDS011;10194;50.824;7.134;2024-02-28T01:20:26;57.73;;;51.73;;
20067;SDS011;10194;50.824;7.134;2024-02-28T01:22:51;57.70;;;51.63;;
20067;SDS011;10194;50.824;7.134;2024-02-28T01:25:17;58.03;;;51.83;;
20067;SDS011;10194;50.824;7.134;2024-02-28T01:27:43;58.13;;;51.97;;
20067;SDS011;10194;50.824;7.134;2024-02-28T01:30:09;57.33;;;51.23;;
20067;SDS011;10194;50.824;7.134;2024-02-28T01:32:36;57.27;;;51.17;;
20067;SDS011;10194;50.824;7.134;2024-02-28T01:35:02;57.17;;;51.17;;
20067;SDS011;10194;50.824;7.134;2024-02-28T01:37:28;56.13;;;50.23;;
20067;SDS011;10194;50.824;7.134;2024-02-28T01:39:54;56.87;;;50.80;;
20067;SDS011;10194;50.824;7.134;2024-02-28T01:42:20;57.27;;;51.17;;
20067;SDS011;10194;50.824;7.134;2024-02-28T01:44:47;57.03;;;51.03;;
20067;SDS011;10194;50.824;7.134;2024-02-28T01:47:13;57.53;;;51.40;;
20067;SDS011;10194;50.824;7.134;2024-02-28T01:49:40;56.97;;;50.97;;
20067;SDS011;10194;50.824;7.134;2024-02-28T01:52:08;56.73;;;50.73;;
20067;SDS011;10194;50.824;7.134;2024-02-28T01:54:34;57.07;;;50.97;;
20067;SDS011;10194;50.824;7.134;2024-02-28T01:57:00;56.77;;;50.77;;
20067;SDS011;10194;50.824;7.134;2024-02-28T01:59:27;56.87;;;50.77;;
20067;SDS011;10194;50.824;7.134;2024-02-28T02:01:55;59.17;;;52.70;;
20067;SDS011;10194;50.824;7.134;2024-02-28T02:04:21;57.63;;;51.33;;
20067;SDS011;10194;50.824;7.134;2024-02-28T02:06:47;56.87;;;50.87;;
20067;SDS011;10194;50.824;7.134;2024-02-28T02:09:14;56.83;;;50.73;;
20067;SDS011;10194;50.824;7.134;2024-02-28T02:11:41;56.50;;;50.50;;
20067;SDS011;10194;50.824;7.134;2024-02-28T02:14:07;59.33;;;52.40;;
20067;SDS011;10194;50.824;7.134;2024-02-28T02:16:33;56.43;;;50.43;;
20067;SDS011;10194;50.824;7.134;2024-02-28T02:18:58;56.53;;;50.53;;
20067;SDS011;10194;50.824;7.134;2024-02-28T02:21:26;58.47;;;52.27;;
20067;SDS011;10194;50.824;7.134;2024-02-28T02:23:56;59.80;;;53.13;;
20067;SDS011;10194;50.824;7.134;2024-02-28T02:26:22;58.13;;;51.83;;
20067;SDS011;10194;50.824;7.134;2024-02-28T02:28:48;56.50;;;50.40;;
20067;SDS011;10194;50.824;7.134;2024-02-28T02:31:13;57.17;;;50.87;;
20067;SDS011;10194;50.824;7.134;2024-02-28T02:33:39;56.60;;;50.60;;
20067;SDS011;10194;50.824;7.134;2024-02-28T02:36:05;57.23;;;51.13;;
20067;SDS011;10194;50.824;7.134;2024-02-28T02:38:31;58.13;;;51.93;;
20067;SDS011;10194;50.824;7.134;2024-02-28T02:40:57;55.83;;;49.80;;
20067;SDS011;10194;50.824;7.134;2024-02-28T02:43:23;57.13;;;51.03;;
20067;SDS011;10194;50.824;7.134;2024-02-28T02:45:48;55.70;;;49.70;;
20067;SDS011;10194;50.824;7.134;2024-02-28T02:48:14;57.90;;;51.77;;
20067;SDS011;10194;50.824;7.134;2024-02-28T02:50:40;56.80;;;50.80;;
20067;SDS011;10194;50.824;7.134;2024-02-28T02:53:07;57.33;;;51.23;;
20067;SDS011;10194;50.824;7.134;2024-02-28T02:55:35;56.97;;;50.87;;
20067;SDS011;10194;50.824;7.134;2024-02-28T02:58:01;56.63;;;50.53;;
20067;SDS011;10194;50.824;7.134;2024-02-28T03:00:27;56.77;;;50.67;;
20067;SDS011;10194;50.824;7.134;2024-02-28T03:02:53;57.13;;;50.93;;
20067;SDS011;10194;50.824;7.134;2024-02-28T03:05:19;56.13;;;50.03;;
20067;SDS011;10194;50.824;7.134;2024-02-28T03:07:45;57.17;;;51.07;;
20067;SDS011;10194;50.824;7.134;2024-02-28T03:10:11;56.57;;;50.57;;
20067;SDS011;10194;50.824;7.134;2024-02-28T03:12:37;58.10;;;52.00;;
20067;SDS011;10194;50.824;7.134;2024-02-28T03:15:03;56.73;;;50.73;;
20067;SDS011;10194;50.824;7.134;2024-02-28T03:17:31;56.70;;;50.60;;
20067;SDS011;10194;50.824;7.134;2024-02-28T03:19:56;56.57;;;50.57;;
20067;SDS011;10194;50.824;7.134;2024-02-28T03:22:22;56.47;;;50.43;;
20067;SDS011;10194;50.824;7.134;2024-02-28T03:24:48;58.20;;;52.10;;
20067;SDS011;10194;50.824;7.134;2024-02-28T03:27:14;57.83;;;51.67;;
20067;SDS011;10194;50.824;7.134;2024-02-28T03:29:40;56.57;;;50.53;;
20067;SDS011;10194;50.824;7.134;2024-02-28T03:32:05;54.87;;;49.07;;
20067;SDS011;10194;50.824;7.134;2024-02-28T03:34:31;56.17;;;50.07;;
20067;SDS011;10194;50.824;7.134;2024-02-28T03:36:57;56.00;;;50.00;;
20067;SDS011;10194;50.824;7.134;2024-02-28T03:39:23;56.33;;;50.23;;
20067;SDS011;10194;50.824;7.134;2024-02-28T03:41:49;55.27;;;49.37;;
20067;SDS011;10194;50.824;7.134;2024-02-28T03:44:15;57.53;;;51.23;;
20067;SDS011;10194;50.824;7.134;2024-02-28T03:46:40;55.77;;;49.77;;
20067;SDS011;10194;50.824;7.134;2024-02-28T03:49:06;55.63;;;49.63;;
20067;SDS011;10194;50.824;7.134;2024-02-28T03:51:32;55.93;;;49.87;;
20067;SDS011;10194;50.824;7.134;2024-02-28T03:54:04;58.03;;;51.40;;
20067;SDS011;10194;50.824;7.134;2024-02-28T03:56:30;54.63;;;48.73;;
20067;SDS011;10194;50.824;7.134;2024-02-28T03:58:56;55.67;;;49.67;;
20067;SDS011;10194;50.824;7.134;2024-02-28T04:01:21;56.03;;;50.03;;
20067;SDS011;10194;50.824;7.134;2024-02-28T04:03:47;56.10;;;50.10;;
20067;SDS011;10194;50.824;7.134;2024-02-28T04:06:13;56.17;;;50.17;;
20067;SDS011;10194;50.824;7.134;2024-02-28T04:08:40;57.37;;;51.27;;
20067;SDS011;10194;50.824;7.134;2024-02-28T04:11:06;59.60;;;53.23;;
20067;SDS011;10194;50.824;7.134;2024-02-28T04:13:32;60.27;;;53.87;;
20067;SDS011;10194;50.824;7.134;2024-02-28T04:15:58;58.97;;;52.80;;
20067;SDS011;10194;50.824;7.134;2024-02-28T04:18:24;57.97;;;51.77;;
20067;SDS011;10194;50.824;7.134;2024-02-28T04:20:50;58.10;;;52.00;;
20067;SDS011;10194;50.824;7.134;2024-02-28T04:23:15;56.40;;;50.37;;
20067;SDS011;10194;50.824;7.134;2024-02-28T04:25:42;58.17;;;51.87;;
20067;SDS011;10194;50.824;7.134;2024-02-28T04:28:08;56.40;;;50.40;;
20067;SDS011;10194;50.824;7.134;2024-02-28T04:30:34;56.67;;;50.67;;
20067;SDS011;10194;50.824;7.134;2024-02-28T04:33:00;56.30;;;50.30;;
20067;SDS011;10194;50.824;7.134;2024-02-28T04:35:25;56.60;;;50.57;;
20067;SDS011;10194;50.824;7.134;2024-02-28T04:37:52;57.07;;;50.97;;
20067;SDS011;10194;50.824;7.134;2024-02-28T04:40:18;55.83;;;49.97;;
20067;SDS011;10194;50.824;7.134;2024-02-28T04:42:43;55.20;;;49.40;;
20067;SDS011;10194;50.824;7.134;2024-02-28T04:45:09;56.23;;;50.30;;
20067;SDS011;10194;50.824;7.134;2024-02-28T04:47:36;55.90;;;50.00;;
20067;SDS011;10194;50.824;7.134;2024-02-28T04:50:03;57.03;;;51.03;;
20067;SDS011;10194;50.824;7.134;2024-02-28T04:52:30;58.30;;;52.10;;
20067;SDS011;10194;50.824;7.134;2024-02-28T04:54:56;55.13;;;49.17;;
20067;SDS011;10194;50.824;7.134;2024-02-28T04:57:22;56.17;;;50.07;;
20067;SDS011;10194;50.824;7.134;2024-02-28T04:59:48;55.40;;;49.40;;
20067;SDS011;10194;50.824;7.134;2024-02-28T05:02:14;54.33;;;48.53;;
20067;SDS011;10194;50.824;7.134;2024-02-28T05:04:40;53.63;;;47.93;;
20067;SDS011;10194;50.824;7.134;2024-02-28T05:07:06;56.50;;;50.43;;
20067;SDS011;10194;50.824;7.134;2024-02-28T05:09:32;56.33;;;50.33;;
20067;SDS011;10194;50.824;7.134;2024-02-28T05:11:58;56.23;;;50.23;;
20067;SDS011;10194;50.824;7.134;2024-02-28T05:14:24;58.13;;;51.73;;
20067;SDS011;10194;50.824;7.134;2024-02-28T05:16:50;55.93;;;49.93;;
20067;SDS011;10194;50.824;7.134;2024-02-28T05:19:16;56.37;;;50.27;;
20067;SDS011;10194;50.824;7.134;2024-02-28T05:21:45;56.43;;;50.33;;
20067;SDS011;10194;50.824;7.134;2024-02-28T05:24:11;60.47;;;53.77;;
20067;SDS011;10194;50.824;7.134;2024-02-28T05:26:37;56.90;;;50.83;;
20067;SDS011;10194;50.824;7.134;2024-02-28T05:29:04;55.90;;;49.90;;
20067;SDS011;10194;50.824;7.134;2024-02-28T05:31:31;57.33;;;51.10;;
20067;SDS011;10194;50.824;7.134;2024-02-28T05:33:58;57.43;;;51.23;;
20067;SDS011;10194;50.824;7.134;2024-02-28T05:36:29;55.63;;;49.63;;
20067;SDS011;10194;50.824;7.134;2024-02-28T05:38:56;57.10;;;51.00;;
20067;SDS011;10194;50.824;7.134;2024-02-28T05:41:23;56.63;;;50.53;;
20067;SDS011;10194;50.824;7.134;2024-02-28T05:43:49;56.93;;;50.73;;
20067;SDS011;10194;50.824;7.134;2024-02-28T05:46:18;56.50;;;50.37;;
20067;SDS011;10194;50.824;7.134;2024-02-28T05:48:45;56.43;;;50.33;;
20067;SDS011;10194;50.824;7.134;2024-02-28T05:51:11;57.93;;;51.63;;
20067;SDS011;10194;50.824;7.134;2024-02-28T05:53:40;56.67;;;50.67;;
20067;SDS011;10194;50.824;7.134;2024-02-28T05:56:07;56.63;;;50.53;;
20067;SDS011;10194;50.824;7.134;2024-02-28T05:58:42;56.43;;;50.43;;
20067;SDS011;10194;50.824;7.134;2024-02-28T06:01:09;58.03;;;51.73;;
20067;SDS011;10194;50.824;7.134;2024-02-28T06:03:36;57.70;;;51.40;;
20067;SDS011;10194;50.824;7.134;2024-02-28T06:06:03;54.93;;;49.03;;
20067;SDS011;10194;50.824;7.134;2024-02-28T06:08:37;56.97;;;50.87;;
20067;SDS011;10194;50.824;7.134;2024-02-28T06:11:04;57.57;;;51.27;;
20067;SDS011;10194;50.824;7.134;2024-02-28T06:13:33;57.37;;;51.07;;
20067;SDS011;10194;50.824;7.134;2024-02-28T06:15:59;54.90;;;49.00;;
20067;SDS011;10194;50.824;7.134;2024-02-28T06:18:25;55.77;;;49.77;;
20067;SDS011;10194;50.824;7.134;2024-02-28T06:20:55;56.10;;;50.03;;
20067;SDS011;10194;50.824;7.134;2024-02-28T06:23:22;56.33;;;50.17;;
20067;SDS011;10194;50.824;7.134;2024-02-28T06:25:48;58.00;;;50.93;;
20067;SDS011;10194;50.824;7.134;2024-02-28T06:28:14;54.90;;;49.00;;
20067;SDS011;10194;50.824;7.134;2024-02-28T06:30:40;54.60;;;48.70;;
20067;SDS011;10194;50.824;7.134;2024-02-28T06:33:07;55.63;;;49.63;;
20067;SDS011;10194;50.824;7.134;2024-02-28T06:35:34;56.57;;;50.37;;
20067;SDS011;10194;50.824;7.134;2024-02-28T06:37:59;56.33;;;50.23;;
20067;SDS011;10194;50.824;7.134;2024-02-28T06:40:26;55.93;;;49.83;;
20067;SDS011;10194;50.824;7.134;2024-02-28T06:42:53;56.77;;;50.73;;
20067;SDS011;10194;50.824;7.134;2024-02-28T06:45:19;55.73;;;49.77;;
20067;SDS011;10194;50.824;7.134;2024-02-28T06:47:45;57.63;;;51.53;;
20067;SDS011;10194;50.824;7.134;2024-02-28T06:50:11;59.70;;;53.50;;
20067;SDS011;10194;50.824;7.134;2024-02-28T06:52:37;58.77;;;52.57;;
20067;SDS011;10194;50.824;7.134;2024-02-28T06:55:03;59.63;;;53.43;;
20067;SDS011;10194;50.824;7.134;2024-02-28T06:57:35;61.00;;;54.63;;
20067;SDS011;10194;50.824;7.134;2024-02-28T07:00:06;62.03;;;55.73;;
20067;SDS011;10194;50.824;7.134;2024-02-28T07:02:34;62.00;;;55.60;;
20067;SDS011;10194;50.824;7.134;2024-02-28T07:05:01;64.07;;;57.67;;
20067;SDS011;10194;50.824;7.134;2024-02-28T07:07:29;65.30;;;58.80;;
20067;SDS011;10194;50.824;7.134;2024-02-28T07:09:58;64.40;;;58.00;;
20067;SDS011;10194;50.824;7.134;2024-02-28T07:12:24;64.20;;;57.70;;
20067;SDS011;10194;50.824;7.134;2024-02-28T07:14:50;64.13;;;57.73;;
20067;SDS011;10194;50.824;7.134;2024-02-28T07:17:16;65.67;;;59.17;;
20067;SDS011;10194;50.824;7.134;2024-02-28T07:19:42;65.30;;;58.80;;
20067;SDS011;10194;50.824;7.134;2024-02-28T07:22:08;65.97;;;59.37;;
20067;SDS011;10194;50.824;7.134;2024-02-28T07:24:34;66.37;;;59.73;;
20067;SDS011;10194;50.824;7.134;2024-02-28T07:27:00;62.77;;;56.37;;
20067;SDS011;10194;50.824;7.134;2024-02-28T07:29:25;62.80;;;56.40;;
20067;SDS011;10194;50.824;7.134;2024-02-28T07:31:51;60.67;;;54.47;;
20067;SDS011;10194;50.824;7.134;2024-02-28T07:34:17;61.97;;;55.43;;
20067;SDS011;10194;50.824;7.134;2024-02-28T07:36:43;61.20;;;54.87;;
20067;SDS011;10194;50.824;7.134;2024-02-28T07:39:08;59.80;;;53.50;;
20067;SDS011;10194;50.824;7.134;2024-02-28T07:41:38;58.87;;;52.67;;
20067;SDS011;10194;50.824;7.134;2024-02-28T07:44:04;60.70;;;54.07;;
20067;SDS011;10194;50.824;7.134;2024-02-28T07:46:32;58.57;;;52.37;;
20067;SDS011;10194;50.824;7.134;2024-02-28T07:48:57;56.80;;;50.70;;
20067;SDS011;10194;50.824;7.134;2024-02-28T07:51:23;58.37;;;52.17;;
20067;SDS011;10194;50.824;7.134;2024-02-28T07:53:49;58.83;;;52.60;;
20067;SDS011;10194;50.824;7.134;2024-02-28T07:56:15;58.80;;;52.60;;
20067;SDS011;10194;50.824;7.134;2024-02-28T07:58:42;57.60;;;51.47;;
20067;SDS011;10194;50.824;7.134;2024-02-28T08:01:08;58.20;;;51.90;;
20067;SDS011;10194;50.824;7.134;2024-02-28T08:03:34;57.67;;;51.47;;
20067;SDS011;10194;50.824;7.134;2024-02-28T08:06:00;56.70;;;50.60;;
20067;SDS011;10194;50.824;7.134;2024-02-28T08:08:26;57.40;;;51.10;;
20067;SDS011;10194;50.824;7.134;2024-02-28T08:10:51;56.67;;;50.57;;
20067;SDS011;10194;50.824;7.134;2024-02-28T08:13:18;57.83;;;51.63;;
20067;SDS011;10194;50.824;7.134;2024-02-28T08:15:44;58.00;;;51.83;;
20067;SDS011;10194;50.824;7.134;2024-02-28T08:18:10;57.60;;;51.47;;
20067;SDS011;10194;50.824;7.134;2024-02-28T08:20:38;59.90;;;53.70;;
20067;SDS011;10194;50.824;7.134;2024-02-28T08:23:04;62.43;;;56.03;;
20067;SDS011;10194;50.824;7.134;2024-02-28T08:25:30;62.60;;;56.10;;
20067;SDS011;10194;50.824;7.134;2024-02-28T08:27:57;64.07;;;57.63;;
20067;SDS011;10194;50.824;7.134;2024-02-28T08:30:22;62.57;;;56.10;;
20067;SDS011;10194;50.824;7.134;2024-02-28T08:32:48;59.20;;;53.00;;
20067;SDS011;10194;50.824;7.134;2024-02-28T08:35:14;59.43;;;53.07;;
20067;SDS011;10194;50.824;7.134;2024-02-28T08:37:43;58.10;;;51.90;;
20067;SDS011;10194;50.824;7.134;2024-02-28T08:40:09;59.17;;;52.83;;
20067;SDS011;10194;50.824;7.134;2024-02-28T08:42:36;57.03;;;50.83;;
20067;SDS011;10194;50.824;7.134;2024-02-28T08:45:02;57.10;;;50.93;;
20067;SDS011;10194;50.824;7.134;2024-02-28T08:47:28;57.83;;;51.53;;
20067;SDS011;10194;50.824;7.134;2024-02-28T08:49:54;56.50;;;50.30;;
20067;SDS011;10194;50.824;7.134;2024-02-28T08:52:20;57.33;;;50.50;;
20067;SDS011;10194;50.824;7.134;2024-02-28T08:54:47;55.83;;;49.57;;
20067;SDS011;10194;50.824;7.134;2024-02-28T08:57:14;55.93;;;49.50;;
20067;SDS011;10194;50.824;7.134;2024-02-28T08:59:40;55.67;;;49.17;;
20067;SDS011;10194;50.824;7.134;2024-02-28T09:02:06;55.37;;;48.83;;
20067;SDS011;10194;50.824;7.134;2024-02-28T09:04:33;57.53;;;49.77;;
20067;SDS011;10194;50.824;7.134;2024-02-28T09:06:59;54.70;;;48.13;;
20067;SDS011;10194;50.824;7.134;2024-02-28T09:09:25;55.33;;;48.50;;
20067;SDS011;10194;50.824;7.134;2024-02-28T09:11:53;55.67;;;48.90;;
20067;SDS011;10194;50.824;7.134;2024-02-28T09:14:18;60.40;;;51.17;;
20067;SDS011;10194;50.824;7.134;2024-02-28T09:16:44;56.77;;;49.03;;
20067;SDS011;10194;50.824;7.134;2024-02-28T09:19:10;55.03;;;48.33;;
20067;SDS011;10194;50.824;7.134;2024-02-28T09:21:36;56.47;;;49.20;;
20067;SDS011;10194;50.824;7.134;2024-02-28T09:24:01;58.70;;;50.33;;
20067;SDS011;10194;50.824;7.134;2024-02-28T09:26:27;55.97;;;48.63;;
20067;SDS011;10194;50.824;7.134;2024-02-28T09:28:53;53.93;;;47.33;;
20067;SDS011;10194;50.824;7.134;2024-02-28T09:31:19;56.00;;;48.67;;
20067;SDS011;10194;50.824;7.134;2024-02-28T09:33:45;58.53;;;50.10;;
20067;SDS011;10194;50.824;7.134;2024-02-28T09:36:11;56.27;;;48.53;;
20067;SDS011;10194;50.824;7.134;2024-02-28T09:38:38;57.27;;;49.70;;
20067;SDS011;10194;50.824;7.134;2024-02-28T09:41:04;57.83;;;49.93;;
20067;SDS011;10194;50.824;7.134;2024-02-28T09:43:30;57.13;;;49.77;;
20067;SDS011;10194;50.824;7.134;2024-02-28T09:46:04;55.50;;;49.47;;
20067;SDS011;10194;50.824;7.134;2024-02-28T09:48:30;57.20;;;50.33;;
20067;SDS011;10194;50.824;7.134;2024-02-28T09:50:56;58.13;;;50.60;;
20067;SDS011;10194;50.824;7.134;2024-02-28T09:53:22;59.07;;;51.93;;
20067;SDS011;10194;50.824;7.134;2024-02-28T09:55:50;56.50;;;50.40;;
20067;SDS011;10194;50.824;7.134;2024-02-28T09:58:17;57.23;;;51.03;;
20067;SDS011;10194;50.824;7.134;2024-02-28T10:00:44;56.10;;;49.97;;
20067;SDS011;10194;50.824;7.134;2024-02-28T10:03:12;55.47;;;49.23;;
20067;SDS011;10194;50.824;7.134;2024-02-28T10:05:44;56.00;;;48.90;;
20067;SDS011;10194;50.824;7.134;2024-02-28T10:08:13;55.57;;;48.83;;
20067;SDS011;10194;50.824;7.134;2024-02-28T10:10:48;56.27;;;49.10;;
20067;SDS011;10194;50.824;7.134;2024-02-28T10:13:17;55.57;;;49.17;;
20067;SDS011;10194;50.824;7.134;2024-02-28T10:15:43;55.30;;;49.20;;
20067;SDS011;10194;50.824;7.134;2024-02-28T10:18:10;56.23;;;50.07;;
20067;SDS011;10194;50.824;7.134;2024-02-28T10:20:36;55.97;;;48.83;;
20067;SDS011;10194;50.824;7.134;2024-02-28T10:23:08;55.30;;;48.57;;
20067;SDS011;10194;50.824;7.134;2024-02-28T10:25:47;56.23;;;48.97;;
20067;SDS011;10194;50.824;7.134;2024-02-28T10:28:13;56.20;;;48.57;;
20067;SDS011;10194;50.824;7.134;2024-02-28T10:30:40;55.97;;;48.37;;
20067;SDS011;10194;50.824;7.134;2024-02-28T10:33:10;54.50;;;47.43;;
20067;SDS011;10194;50.824;7.134;2024-02-28T10:35:40;54.83;;;47.57;;
20067;SDS011;10194;50.824;7.134;2024-02-28T10:38:10;55.13;;;47.83;;
20067;SDS011;10194;50.824;7.134;2024-02-28T10:40:37;56.33;;;48.90;;
20067;SDS011;10194;50.824;7.134;2024-02-28T10:43:09;54.60;;;47.77;;
20067;SDS011;10194;50.824;7.134;2024-02-28T10:45:39;55.70;;;48.20;;
20067;SDS011;10194;50.824;7.134;2024-02-28T10:48:05;54.53;;;48.03;;
20067;SDS011;10194;50.824;7.134;2024-02-28T10:50:32;55.57;;;48.70;;
20067;SDS011;10194;50.824;7.134;2024-02-28T10:53:02;56.17;;;49.37;;
20067;SDS011;10194;50.824;7.134;2024-02-28T10:55:33;56.83;;;49.80;;
20067;SDS011;10194;50.824;7.134;2024-02-28T10:58:06;55.40;;;49.27;;
20067;SDS011;10194;50.824;7.134;2024-02-28T11:00:35;59.33;;;52.33;;
20067;SDS011;10194;50.824;7.134;2024-02-28T11:03:15;57.60;;;51.37;;
20067;SDS011;10194;50.824;7.134;2024-02-28T11:05:43;56.63;;;50.10;;
20067;SDS011;10194;50.824;7.134;2024-02-28T11:08:22;55.43;;;49.03;;
20067;SDS011;10194;50.824;7.134;2024-02-28T11:10:57;55.87;;;49.17;;
20067;SDS011;10194;50.824;7.134;2024-02-28T11:13:29;56.17;;;49.70;;
20067;SDS011;10194;50.824;7.134;2024-02-28T11:16:07;56.80;;;49.27;;
20067;SDS011;10194;50.824;7.134;2024-02-28T11:18:34;56.80;;;49.30;;
20067;SDS011;10194;50.824;7.134;2024-02-28T11:21:00;55.87;;;48.67;;
20067;SDS011;10194;50.824;7.134;2024-02-28T11:23:40;54.63;;;48.13;;
20067;SDS011;10194;50.824;7.134;2024-02-28T11:26:06;54.60;;;48.00;;
20067;SDS011;10194;50.824;7.134;2024-02-28T11:28:33;56.73;;;49.13;;
20067;SDS011;10194;50.824;7.134;2024-02-28T11:31:00;57.27;;;49.50;;
20067;SDS011;10194;50.824;7.134;2024-02-28T11:33:28;55.87;;;49.00;;
20067;SDS011;10194;50.824;7.134;2024-02-28T11:35:55;55.57;;;48.37;;
20067;SDS011;10194;50.824;7.134;2024-02-28T11:38:25;56.23;;;48.00;;
20067;SDS011;10194;50.824;7.134;2024-02-28T11:40:52;55.70;;;47.83;;
20067;SDS011;10194;50.824;7.134;2024-02-28T11:43:24;56.27;;;48.37;;
20067;SDS011;10194;50.824;7.134;2024-02-28T11:45:50;56.30;;;48.17;;
20067;SDS011;10194;50.824;7.134;2024-02-28T11:48:16;55.30;;;47.60;;
20067;SDS011;10194;50.824;7.134;2024-02-28T11:50:42;57.27;;;50.47;;
20067;SDS011;10194;50.824;7.134;2024-02-28T11:53:08;55.30;;;48.40;;
20067;SDS011;10194;50.824;7.134;2024-02-28T11:55:34;57.30;;;49.67;;
20067;SDS011;10194;50.824;7.134;2024-02-28T11:58:01;56.77;;;49.47;;
20067;SDS011;10194;50.824;7.134;2024-02-28T12:00:27;57.23;;;49.47;;
20067;SDS011;10194;50.824;7.134;2024-02-28T12:03:03;56.80;;;49.30;;
20067;SDS011;10194;50.824;7.134;2024-02-28T12:05:32;56.20;;;48.80;;
20067;SDS011;10194;50.824;7.134;2024-02-28T12:07:58;56.60;;;49.00;;
20067;SDS011;10194;50.824;7.134;2024-02-28T12:10:25;56.83;;;49.13;;
20067;SDS011;10194;50.824;7.134;2024-02-28T12:12:50;55.30;;;48.47;;
20067;SDS011;10194;50.824;7.134;2024-02-28T12:15:16;55.73;;;48.67;;
20067;SDS011;10194;50.824;7.134;2024-02-28T12:17:43;55.60;;;47.83;;
20067;SDS011;10194;50.824;7.134;2024-02-28T12:20:11;55.80;;;47.83;;
20067;SDS011;10194;50.824;7.134;2024-02-28T12:22:37;57.87;;;48.87;;
20067;SDS011;10194;50.824;7.134;2024-02-28T12:25:03;56.27;;;47.93;;
20067;SDS011;10194;50.824;7.134;2024-02-28T12:27:29;56.87;;;48.47;;
20067;SDS011;10194;50.824;7.134;2024-02-28T12:29:58;55.80;;;47.87;;
20067;SDS011;10194;50.824;7.134;2024-02-28T12:32:24;55.23;;;47.67;;
20067;SDS011;10194;50.824;7.134;2024-02-28T12:34:49;58.93;;;47.97;;
20067;SDS011;10194;50.824;7.134;2024-02-28T12:37:15;60.50;;;48.67;;
20067;SDS011;10194;50.824;7.134;2024-02-28T12:39:41;60.53;;;48.87;;
20067;SDS011;10194;50.824;7.134;2024-02-28T12:42:07;60.43;;;48.83;;
20067;SDS011;10194;50.824;7.134;2024-02-28T12:44:33;60.80;;;49.13;;
20067;SDS011;10194;50.824;7.134;2024-02-28T12:46:59;59.20;;;48.30;;
20067;SDS011;10194;50.824;7.134;2024-02-28T12:49:25;58.43;;;47.93;;
20067;SDS011;10194;50.824;7.134;2024-02-28T12:51:50;59.57;;;48.43;;
20067;SDS011;10194;50.824;7.134;2024-02-28T12:54:16;62.03;;;49.60;;
20067;SDS011;10194;50.824;7.134;2024-02-28T12:56:44;58.97;;;48.23;;
20067;SDS011;10194;50.824;7.134;2024-02-28T12:59:10;59.67;;;48.53;;
20067;SDS011;10194;50.824;7.134;2024-02-28T13:01:37;61.23;;;49.10;;
20067;SDS011;10194;50.824;7.134;2024-02-28T13:04:03;59.67;;;48.40;;
20067;SDS011;10194;50.824;7.134;2024-02-28T13:06:29;58.83;;;48.17;;
20067;SDS011;10194;50.824;7.134;2024-02-28T13:08:56;57.70;;;47.67;;
20067;SDS011;10194;50.824;7.134;2024-02-28T13:11:23;58.87;;;48.23;;
20067;SDS011;10194;50.824;7.134;2024-02-28T13:13:50;58.23;;;47.93;;
20067;SDS011;10194;50.824;7.134;2024-02-28T13:16:17;58.73;;;48.20;;
20067;SDS011;10194;50.824;7.134;2024-02-28T13:18:44;57.87;;;47.77;;
20067;SDS011;10194;50.824;7.134;2024-02-28T13:21:10;60.43;;;49.03;;
20067;SDS011;10194;50.824;7.134;2024-02-28T13:23:36;59.87;;;48.70;;
20067;SDS011;10194;50.824;7.134;2024-02-28T13:26:05;60.50;;;48.93;;
20067;SDS011;10194;50.824;7.134;2024-02-28T13:28:32;61.87;;;49.57;;
20067;SDS011;10194;50.824;7.134;2024-02-28T13:31:01;61.03;;;49.37;;
20067;SDS011;10194;50.824;7.134;2024-02-28T13:33:31;60.57;;;49.27;;
20067;SDS011;10194;50.824;7.134;2024-02-28T13:35:56;59.90;;;49.07;;
20067;SDS011;10194;50.824;7.134;2024-02-28T13:38:22;60.23;;;49.03;;
20067;SDS011;10194;50.824;7.134;2024-02-28T13:40:48;59.97;;;48.93;;
20067;SDS011;10194;50.824;7.134;2024-02-28T13:43:15;60.27;;;49.23;;
20067;SDS011;10194;50.824;7.134;2024-02-28T13:45:45;60.93;;;49.43;;
20067;SDS011;10194;50.824;7.134;2024-02-28T13:50:47;60.60;;;49.47;;
20067;SDS011;10194;50.824;7.134;2024-02-28T13:53:14;62.73;;;50.40;;
20067;SDS011;10194;50.824;7.134;2024-02-28T13:55:49;59.47;;;48.90;;
20067;SDS011;10194;50.824;7.134;2024-02-28T13:58:15;60.43;;;49.40;;
20067;SDS011;10194;50.824;7.134;2024-02-28T14:00:44;61.03;;;49.60;;
20067;SDS011;10194;50.824;7.134;2024-02-28T14:03:11;63.07;;;50.67;;
20067;SDS011;10194;50.824;7.134;2024-02-28T14:05:39;62.10;;;50.27;;
20067;SDS011;10194;50.824;7.134;2024-02-28T14:08:05;61.37;;;49.87;;
20067;SDS011;10194;50.824;7.134;2024-02-28T14:10:33;60.63;;;49.43;;
20067;SDS011;10194;50.824;7.134;2024-02-28T14:12:59;61.00;;;49.73;;
20067;SDS011;10194;50.824;7.134;2024-02-28T14:15:25;59.97;;;49.17;;
20067;SDS011;10194;50.824;7.134;2024-02-28T14:17:52;60.03;;;49.23;;
20067;SDS011;10194;50.824;7.134;2024-02-28T14:20:19;60.87;;;49.47;;